createdAt,value
2019-05-23T00:01:11.723Z,12.30
2019-05-23T00:03:48.260Z,12.20
2019-05-23T00:06:26.851Z,12.20
2019-05-23T00:08:57.478Z,12.10
2019-05-23T00:11:53.889Z,12.10
2019-05-23T00:14:43.315Z,12.00
2019-05-23T00:17:26.745Z,12.00
2019-05-23T00:19:57.098Z,12.00
2019-05-23T00:22:27.397Z,12.00
2019-05-23T00:25:04.259Z,11.90
2019-05-23T00:27:36.850Z,11.90
2019-05-23T00:30:15.987Z,11.90
2019-05-23T00:32:47.383Z,11.80
2019-05-23T00:35:25.838Z,11.70
2019-05-23T00:37:55.630Z,11.70
2019-05-23T00:40:33.243Z,11.80
2019-05-23T00:43:03.578Z,11.70
2019-05-23T00:45:39.624Z,11.80
2019-05-23T00:48:15.659Z,11.80
2019-05-23T00:50:52.350Z,11.70
2019-05-23T00:53:22.258Z,11.60
2019-05-23T00:55:52.097Z,11.50
2019-05-23T00:58:27.822Z,11.40
2019-05-23T01:00:59.601Z,11.40
2019-05-23T01:03:38.216Z,11.40
2019-05-23T01:06:07.629Z,11.40
2019-05-23T01:08:45.069Z,11.40
2019-05-23T01:11:16.281Z,11.40
2019-05-23T01:13:52.689Z,11.40
2019-05-23T01:16:29.770Z,11.30
2019-05-23T01:19:06.294Z,11.30
2019-05-23T01:22:06.652Z,11.30
2019-05-23T01:24:44.651Z,11.30
2019-05-23T01:27:14.866Z,11.20
2019-05-23T01:29:52.174Z,11.20
2019-05-23T01:32:45.046Z,11.10
2019-05-23T01:35:19.202Z,11.10
2019-05-23T01:37:55.240Z,11.10
2019-05-23T01:40:24.655Z,11.10
2019-05-23T01:43:00.226Z,11.10
2019-05-23T01:45:29.737Z,11.10
2019-05-23T01:48:12.343Z,11.00
2019-05-23T01:50:41.663Z,11.00
2019-05-23T01:53:17.938Z,10.90
2019-05-23T01:55:47.653Z,10.90
2019-05-23T01:58:16.975Z,10.90
2019-05-23T02:00:53.524Z,10.90
2019-05-23T02:03:23.111Z,10.90
2019-05-23T02:05:59.532Z,10.80
2019-05-23T02:08:29.214Z,10.80
2019-05-23T02:11:05.523Z,10.80
2019-05-23T02:13:35.123Z,10.80
2019-05-23T02:16:18.892Z,10.70
2019-05-23T02:18:49.080Z,10.70
2019-05-23T02:21:26.024Z,10.70
2019-05-23T02:23:55.787Z,10.70
2019-05-23T02:26:32.212Z,10.70
2019-05-23T02:29:03.384Z,10.60
2019-05-23T02:31:39.241Z,10.60
2019-05-23T02:34:08.537Z,10.60
2019-05-23T02:36:45.003Z,10.50
2019-05-23T02:39:40.716Z,10.50
2019-05-23T02:42:31.722Z,10.60
2019-05-23T02:45:10.913Z,10.50
2019-05-23T02:47:52.118Z,10.40
2019-05-23T02:50:34.951Z,10.30
2019-05-23T02:53:12.158Z,10.30
2019-05-23T02:55:42.309Z,10.30
2019-05-23T02:58:34.956Z,10.30
2019-05-23T03:01:48.926Z,10.20
2019-05-23T03:04:24.950Z,10.20
2019-05-23T03:07:02.968Z,10.10
2019-05-23T03:09:35.865Z,10.10
2019-05-23T03:12:14.180Z,10.10
2019-05-23T03:14:51.367Z,10.10
2019-05-23T03:17:35.195Z,10.10
2019-05-23T03:20:08.038Z,10.10
2019-05-23T03:22:55.202Z,10.20
2019-05-23T03:26:10.511Z,10.20
2019-05-23T03:28:48.834Z,10.10
2019-05-23T03:31:41.860Z,10.10
2019-05-23T03:34:19.613Z,10.10
2019-05-23T03:36:48.883Z,10.00
2019-05-23T03:39:24.999Z,10.00
2019-05-23T03:41:54.209Z,10.00
2019-05-23T03:44:31.759Z,10.00
2019-05-23T03:47:09.674Z,10.00
2019-05-23T03:49:46.071Z,10.00
2019-05-23T03:52:16.798Z,10.00
2019-05-23T03:54:49.107Z,10.00
2019-05-23T03:57:27.846Z,10.00
2019-05-23T04:00:05.438Z,10.00
2019-05-23T04:02:36.419Z,10.10
2019-05-23T04:05:14.144Z,10.00
2019-05-23T04:07:43.551Z,10.10
2019-05-23T04:10:20.747Z,10.20
2019-05-23T04:12:50.127Z,10.20
2019-05-23T04:15:27.169Z,10.30
2019-05-23T04:18:03.402Z,10.30
2019-05-23T04:20:39.579Z,10.40
2019-05-23T04:23:09.513Z,10.40
2019-05-23T04:25:45.557Z,10.40
2019-05-23T04:28:14.699Z,10.50
2019-05-23T04:30:44.493Z,10.50
2019-05-23T04:33:20.770Z,10.60
2019-05-23T04:35:49.905Z,10.60
2019-05-23T04:38:25.674Z,10.60
2019-05-23T04:40:54.940Z,10.70
2019-05-23T04:43:34.295Z,10.90
2019-05-23T04:46:10.526Z,11.10
2019-05-23T04:48:46.681Z,11.30
2019-05-23T04:51:16.050Z,11.50
2019-05-23T04:53:52.381Z,11.60
2019-05-23T04:56:21.667Z,11.70
2019-05-23T04:58:52.386Z,11.80
2019-05-23T05:01:29.554Z,11.90
2019-05-23T05:03:59.069Z,12.00
2019-05-23T05:06:35.452Z,12.00
2019-05-23T05:09:08.632Z,12.10
2019-05-23T05:11:44.101Z,12.30
2019-05-23T05:14:13.881Z,12.30
2019-05-23T05:16:52.024Z,12.50
2019-05-23T05:19:29.585Z,12.60
2019-05-23T05:22:05.079Z,12.70
2019-05-23T05:24:40.126Z,12.70
2019-05-23T05:27:14.314Z,12.80
2019-05-23T05:29:46.358Z,13.00
2019-05-23T05:32:23.990Z,13.20
2019-05-23T05:34:55.523Z,13.40
2019-05-23T05:37:31.974Z,13.70
2019-05-23T05:40:01.708Z,13.80
2019-05-23T05:42:37.387Z,13.80
2019-05-23T05:48:45.160Z,14.20
2019-05-23T05:51:14.563Z,14.70
2019-05-23T05:53:54.549Z,15.20
2019-05-23T05:56:28.204Z,15.60
2019-05-23T05:59:04.258Z,16.00
2019-05-23T06:01:34.692Z,16.10
2019-05-23T06:04:11.457Z,16.10
2019-05-23T06:06:50.304Z,16.30
2019-05-23T06:09:30.710Z,16.40
2019-05-23T06:12:00.134Z,16.30
2019-05-23T06:14:36.120Z,16.30
2019-05-23T06:17:15.221Z,16.20
2019-05-23T06:19:56.918Z,16.10
2019-05-23T06:22:28.310Z,16.10
2019-05-23T06:25:04.629Z,16.10
2019-05-23T06:27:35.495Z,16.30
2019-05-23T06:30:13.762Z,16.40
2019-05-23T06:32:43.156Z,16.80
2019-05-23T06:35:13.630Z,17.20
2019-05-23T06:37:49.931Z,17.30
2019-05-23T06:40:20.033Z,17.60
2019-05-23T06:42:55.522Z,17.90
2019-05-23T06:45:25.340Z,18.20
2019-05-23T06:48:07.741Z,18.10
2019-05-23T06:50:37.006Z,18.00
2019-05-23T06:53:13.998Z,17.90
2019-05-23T06:55:43.187Z,18.00
2019-05-23T06:58:49.182Z,18.20
2019-05-23T07:01:19.039Z,18.60
2019-05-23T07:07:58.372Z,19.30
2019-05-23T07:28:53.374Z,21.20
2019-05-23T07:37:52.734Z,21.90
2019-05-23T07:43:04.132Z,22.20
2019-05-23T07:55:55.249Z,22.60
2019-05-23T07:58:31.768Z,22.50
2019-05-23T08:01:10.112Z,22.60
2019-05-23T08:03:40.231Z,22.70
2019-05-23T08:06:10.125Z,22.60
2019-05-23T08:08:46.482Z,22.80
2019-05-23T08:11:15.694Z,22.90
2019-05-23T08:13:52.011Z,23.10
2019-05-23T08:16:21.307Z,23.00
2019-05-23T08:18:50.424Z,23.00
2019-05-23T08:21:26.944Z,23.30
2019-05-23T08:23:56.176Z,23.20
2019-05-23T08:26:33.572Z,23.20
2019-05-23T08:29:24.775Z,23.00
2019-05-23T08:31:41.472Z,22.90
2019-05-23T08:34:11.194Z,22.90
2019-05-23T08:36:40.337Z,22.90
2019-05-23T08:39:16.955Z,22.90
2019-05-23T08:41:46.204Z,23.00
2019-05-23T08:44:23.114Z,23.10
2019-05-23T08:46:58.602Z,23.20
2019-05-23T08:49:34.919Z,23.10
2019-05-23T08:52:04.257Z,23.40
2019-05-23T08:54:48.163Z,23.70
2019-05-23T08:57:17.643Z,23.90
2019-05-23T08:59:53.978Z,24.00
2019-05-23T09:02:23.494Z,24.00
2019-05-23T09:05:04.160Z,24.20
2019-05-23T09:07:30.049Z,24.20
2019-05-23T09:09:59.505Z,24.10
2019-05-23T09:12:35.339Z,24.20
2019-05-23T09:15:09.593Z,24.10
2019-05-23T09:17:53.057Z,24.30
2019-05-23T09:20:15.279Z,24.50
2019-05-23T09:22:50.924Z,24.50
2019-05-23T09:25:20.662Z,24.50
2019-05-23T09:27:58.041Z,24.70
2019-05-23T09:30:27.642Z,24.70
2019-05-23T09:32:56.859Z,24.90
2019-05-23T09:35:33.394Z,25.10
2019-05-23T09:38:02.551Z,25.10
2019-05-23T09:40:38.782Z,24.80
2019-05-23T09:43:08.380Z,24.90
2019-05-23T09:45:44.681Z,24.90
2019-05-23T09:48:20.652Z,24.90
2019-05-23T09:50:56.783Z,24.70
2019-05-23T09:53:26.380Z,24.40
2019-05-23T09:56:09.243Z,24.70
2019-05-23T09:58:38.834Z,24.60
2019-05-23T10:01:08.932Z,24.40
2019-05-23T10:03:44.986Z,24.60
2019-05-23T10:06:14.142Z,24.40
2019-05-23T10:09:05.807Z,24.00
2019-05-23T10:11:42.563Z,24.10
2019-05-23T10:14:22.853Z,24.00
2019-05-23T10:16:52.138Z,24.30
2019-05-23T10:19:21.311Z,24.60
2019-05-23T10:21:57.127Z,24.90
2019-05-23T10:24:26.469Z,25.40
2019-05-23T10:27:01.747Z,25.80
2019-05-23T10:29:31.286Z,25.60
2019-05-23T10:32:06.920Z,25.50
2019-05-23T10:34:36.358Z,25.30
2019-05-23T10:37:07.942Z,25.30
2019-05-23T10:39:45.306Z,25.10
2019-05-23T10:42:21.208Z,25.20
2019-05-23T10:44:50.336Z,25.10
2019-05-23T10:47:26.714Z,25.30
2019-05-23T10:50:07.736Z,25.00
2019-05-23T10:52:41.102Z,24.30
2019-05-23T10:55:17.014Z,24.10
2019-05-23T10:57:59.462Z,23.90
2019-05-23T11:00:30.222Z,23.90
2019-05-23T11:02:59.950Z,23.90
2019-05-23T11:05:36.716Z,23.80
2019-05-23T11:08:06.606Z,23.60
2019-05-23T11:10:43.419Z,23.90
2019-05-23T11:13:12.583Z,24.30
2019-05-23T11:15:42.245Z,24.20
2019-05-23T11:18:17.964Z,24.30
2019-05-23T11:20:47.944Z,24.20
2019-05-23T11:23:39.441Z,23.90
2019-05-23T11:26:09.362Z,23.60
2019-05-23T11:28:38.907Z,23.40
2019-05-23T11:31:18.891Z,23.20
2019-05-23T11:33:48.407Z,23.30
2019-05-23T11:36:34.905Z,23.30
2019-05-23T11:38:55.237Z,23.50
2019-05-23T11:41:24.905Z,23.40
2019-05-23T11:44:00.737Z,23.40
2019-05-23T11:46:33.498Z,23.40
2019-05-23T11:49:09.995Z,23.30
2019-05-23T11:51:46.520Z,23.30
2019-05-23T11:54:22.798Z,23.40
2019-05-23T11:57:01.084Z,23.50
2019-05-23T11:59:43.917Z,23.70
2019-05-23T12:02:38.387Z,23.50
2019-05-23T12:05:19.141Z,23.20
2019-05-23T12:07:48.502Z,23.10
2019-05-23T12:10:25.344Z,23.00
2019-05-23T12:12:54.618Z,22.80
2019-05-23T12:15:34.758Z,22.80
2019-05-23T12:18:05.700Z,22.80
2019-05-23T12:20:34.955Z,22.70
2019-05-23T12:23:29.258Z,23.00
2019-05-23T12:26:05.932Z,23.10
2019-05-23T12:28:41.482Z,22.90
2019-05-23T12:31:11.032Z,22.70
2019-05-23T12:33:40.181Z,22.50
2019-05-23T12:36:18.208Z,22.60
2019-05-23T12:38:47.427Z,22.90
2019-05-23T12:41:23.600Z,22.90
2019-05-23T12:43:52.912Z,23.10
2019-05-23T12:46:22.265Z,23.10
2019-05-23T12:49:19.674Z,23.20
2019-05-23T12:51:56.568Z,23.20
2019-05-23T12:54:32.678Z,23.20
2019-05-23T12:57:02.050Z,23.10
2019-05-23T12:59:31.387Z,23.20
2019-05-23T13:02:07.950Z,23.30
2019-05-23T13:04:37.201Z,23.50
2019-05-23T13:07:13.670Z,23.70
2019-05-23T13:09:43.374Z,23.80
2019-05-23T13:12:16.146Z,23.90
2019-05-23T13:14:53.554Z,23.80
2019-05-23T13:17:21.224Z,24.00
2019-05-23T13:19:50.478Z,23.90
2019-05-23T13:22:26.182Z,23.90
2019-05-23T13:25:02.345Z,23.90
2019-05-23T13:27:44.649Z,23.90
2019-05-23T13:30:15.508Z,23.90
2019-05-23T13:32:45.470Z,23.90
2019-05-23T13:35:21.147Z,23.90
2019-05-23T13:37:54.120Z,23.70
2019-05-23T13:40:27.998Z,23.90
2019-05-23T13:42:57.594Z,23.90
2019-05-23T13:45:27.379Z,23.80
2019-05-23T13:48:02.987Z,23.80
2019-05-23T13:50:38.846Z,23.90
2019-05-23T13:53:14.670Z,23.80
2019-05-23T13:55:43.809Z,23.90
2019-05-23T13:58:13.385Z,24.10
2019-05-23T14:00:50.635Z,24.00
2019-05-23T14:03:20.193Z,24.00
2019-05-23T14:05:55.832Z,23.90
2019-05-23T14:08:25.458Z,23.80
2019-05-23T14:10:54.858Z,23.60
2019-05-23T14:13:30.559Z,23.40
2019-05-23T14:15:59.848Z,23.30
2019-05-23T14:18:36.268Z,23.30
2019-05-23T14:21:06.411Z,23.30
2019-05-23T14:23:35.659Z,23.40
2019-05-23T14:26:13.064Z,23.50
2019-05-23T14:28:42.578Z,23.40
2019-05-23T14:31:22.349Z,23.50
2019-05-23T14:34:06.889Z,23.30
2019-05-23T14:37:10.704Z,23.10
2019-05-23T14:39:44.017Z,22.90
2019-05-23T14:42:37.844Z,22.40
2019-05-23T14:45:14.309Z,22.30
2019-05-23T14:48:11.918Z,22.30
2019-05-23T14:51:00.246Z,22.40
2019-05-23T14:53:44.188Z,22.50
2019-05-23T14:56:17.067Z,22.60
2019-05-23T14:58:53.458Z,22.70
2019-05-23T15:01:24.429Z,22.90
2019-05-23T15:04:00.678Z,23.00
2019-05-23T15:06:29.919Z,23.10
2019-05-23T15:08:59.297Z,23.20
2019-05-23T15:11:35.006Z,23.30
2019-05-23T15:14:04.890Z,23.20
2019-05-23T15:16:41.668Z,23.20
2019-05-23T15:19:10.861Z,23.10
2019-05-23T15:21:40.026Z,23.10
2019-05-23T15:24:16.196Z,23.10
2019-05-23T15:26:52.142Z,23.10
2019-05-23T15:29:29.398Z,23.10
2019-05-23T15:32:02.880Z,23.10
2019-05-23T15:34:30.140Z,23.00
2019-05-23T15:37:06.396Z,23.00
2019-05-23T15:39:35.727Z,22.90
2019-05-23T15:42:04.937Z,23.00
2019-05-23T15:44:41.239Z,23.10
2019-05-23T15:47:10.490Z,23.20
2019-05-23T15:49:41.512Z,23.30
2019-05-23T15:52:26.172Z,23.40
2019-05-23T15:55:20.062Z,23.20
2019-05-23T15:58:22.255Z,23.10
2019-05-23T16:01:12.709Z,23.00
2019-05-23T16:03:57.332Z,22.80
2019-05-23T16:06:28.542Z,22.70
2019-05-23T16:09:05.110Z,22.60
2019-05-23T16:11:34.313Z,22.60
2019-05-23T16:14:10.594Z,22.50
2019-05-23T16:16:40.384Z,22.50
2019-05-23T16:19:09.510Z,22.50
2019-05-23T16:21:46.649Z,22.50
2019-05-23T16:24:15.861Z,22.50
2019-05-23T16:26:59.518Z,22.60
2019-05-23T16:29:35.976Z,22.50
2019-05-23T16:32:12.214Z,22.40
2019-05-23T16:34:41.533Z,22.30
2019-05-23T16:37:11.373Z,22.20
2019-05-23T16:39:49.432Z,22.20
2019-05-23T16:42:19.459Z,22.20
2019-05-23T16:44:48.680Z,22.10
2019-05-23T16:47:24.335Z,22.10
2019-05-23T16:49:53.644Z,22.10
2019-05-23T16:52:29.637Z,22.00
2019-05-23T16:55:07.302Z,22.10
2019-05-23T16:57:57.478Z,22.10
2019-05-23T17:00:44.772Z,22.20
2019-05-23T17:03:33.065Z,22.20
2019-05-23T17:06:24.261Z,22.10
2019-05-23T17:09:32.268Z,22.00
2019-05-23T17:12:36.146Z,22.00
2019-05-23T17:15:25.022Z,22.00
2019-05-23T17:18:22.965Z,21.90
2019-05-23T17:21:10.007Z,21.90
2019-05-23T17:24:04.380Z,21.90
2019-05-23T17:27:08.000Z,21.90
2019-05-23T17:29:47.907Z,21.90
2019-05-23T17:32:26.473Z,22.00
2019-05-23T17:34:59.005Z,22.00
2019-05-23T17:37:34.708Z,22.00
2019-05-23T17:40:04.738Z,22.10
2019-05-23T17:42:33.926Z,22.10
2019-05-23T17:45:13.458Z,22.00
2019-05-23T17:47:40.488Z,22.00
2019-05-23T17:50:15.917Z,21.90
2019-05-23T17:52:47.505Z,21.90
2019-05-23T17:55:30.202Z,21.80
2019-05-23T17:57:59.453Z,21.80
2019-05-23T18:00:44.216Z,21.70
2019-05-23T18:03:16.025Z,21.70
2019-05-23T18:05:46.836Z,21.60
2019-05-23T18:08:24.053Z,21.60
2019-05-23T18:10:53.584Z,21.60
2019-05-23T18:13:29.360Z,21.60
2019-05-23T18:15:58.631Z,21.50
2019-05-23T18:18:28.891Z,21.50
2019-05-23T18:21:06.965Z,21.40
2019-05-23T18:23:36.488Z,21.40
2019-05-23T18:26:06.773Z,21.40
2019-05-23T18:28:43.852Z,21.30
2019-05-23T18:31:26.010Z,21.20
2019-05-23T18:34:21.627Z,21.20
2019-05-23T18:36:52.294Z,21.10
2019-05-23T18:39:22.882Z,21.10
2019-05-23T18:42:01.336Z,21.00
2019-05-23T18:44:30.523Z,20.90
2019-05-23T18:47:08.583Z,20.80
2019-05-23T18:49:37.973Z,20.70
2019-05-23T18:52:14.329Z,20.70
2019-05-23T18:54:43.531Z,20.70
2019-05-23T18:57:26.281Z,20.60
2019-05-23T18:59:55.827Z,20.50
2019-05-23T19:02:25.872Z,20.40
2019-05-23T19:05:03.211Z,20.30
2019-05-23T19:07:33.051Z,20.20
2019-05-23T19:10:10.162Z,20.20
2019-05-23T19:12:39.958Z,20.20
2019-05-23T19:15:09.332Z,20.10
2019-05-23T19:17:46.064Z,20.10
2019-05-23T19:20:15.409Z,20.20
2019-05-23T19:22:52.011Z,20.10
2019-05-23T19:25:21.239Z,20.00
2019-05-23T19:27:50.365Z,19.90
2019-05-23T19:30:27.105Z,19.80
2019-05-23T19:32:56.705Z,19.80
2019-05-23T19:35:51.855Z,19.70
2019-05-23T19:38:25.489Z,19.60
2019-05-23T19:41:02.181Z,19.60
2019-05-23T19:43:31.569Z,19.50
2019-05-23T19:46:01.428Z,19.60
2019-05-23T19:48:39.975Z,19.70
2019-05-23T19:51:10.593Z,19.60
2019-05-23T19:53:40.829Z,19.60
2019-05-23T19:56:23.804Z,19.50
2019-05-23T19:58:53.472Z,19.50
2019-05-23T20:01:32.154Z,19.40
2019-05-23T20:04:01.804Z,19.30
2019-05-23T20:06:38.305Z,19.20
2019-05-23T20:09:10.997Z,19.20
2019-05-23T20:11:54.252Z,19.10
2019-05-23T20:14:18.074Z,19.10
2019-05-23T20:16:53.699Z,19.10
2019-05-23T20:19:23.269Z,19.00
2019-05-23T20:21:54.605Z,19.00
2019-05-23T20:24:30.587Z,19.00
2019-05-23T20:27:18.824Z,18.90
2019-05-23T20:29:54.451Z,18.80
2019-05-23T20:32:30.823Z,18.60
2019-05-23T20:35:07.376Z,18.50
2019-05-23T20:37:37.486Z,18.40
2019-05-23T20:40:07.395Z,18.30
2019-05-23T20:42:43.197Z,18.30
2019-05-23T20:45:12.772Z,18.20
2019-05-23T20:47:49.106Z,18.20
2019-05-23T20:50:18.365Z,18.20
2019-05-23T20:53:02.142Z,18.10
2019-05-23T20:55:33.568Z,18.00
2019-05-23T20:58:02.857Z,17.90
2019-05-23T21:01:16.845Z,17.80
2019-05-23T21:03:47.180Z,17.70
2019-05-23T21:06:16.349Z,17.70
2019-05-23T21:08:52.918Z,17.70
2019-05-23T21:11:22.422Z,17.60
2019-05-23T21:13:51.616Z,17.50
2019-05-23T21:16:27.120Z,17.50
2019-05-23T21:18:56.339Z,17.50
2019-05-23T21:21:25.466Z,17.40
2019-05-23T21:24:00.948Z,17.30
2019-05-23T21:26:49.351Z,17.30
2019-05-23T21:29:26.013Z,17.30
2019-05-23T21:32:02.242Z,17.10
2019-05-23T21:34:37.988Z,17.10
2019-05-23T21:37:07.244Z,17.00
2019-05-23T21:39:36.471Z,16.90
2019-05-23T21:42:46.730Z,17.00
2019-05-23T21:45:03.015Z,17.00
2019-05-23T21:47:32.260Z,16.90
2019-05-23T21:50:08.401Z,17.00
2019-05-23T21:52:44.524Z,17.00
2019-05-23T21:55:23.796Z,17.00
2019-05-23T21:57:53.006Z,17.00
2019-05-23T22:00:47.831Z,17.10
2019-05-23T22:03:17.667Z,17.10
2019-05-23T22:05:53.346Z,17.10
2019-05-23T22:08:22.516Z,17.10
2019-05-23T22:10:58.182Z,17.10
2019-05-23T22:13:27.363Z,17.10
2019-05-23T22:15:58.664Z,17.10
2019-05-23T22:18:34.896Z,17.10
2019-05-23T22:21:04.047Z,17.00
2019-05-23T22:23:40.302Z,17.00
2019-05-23T22:26:09.478Z,17.00
2019-05-23T22:28:38.689Z,16.90
2019-05-23T22:31:15.884Z,16.90
2019-05-23T22:33:58.237Z,16.90
2019-05-23T22:36:33.663Z,16.90
2019-05-23T22:39:02.982Z,16.90
2019-05-23T22:41:32.971Z,16.90
2019-05-23T22:44:09.751Z,16.90
2019-05-23T22:46:39.070Z,16.60
2019-05-23T22:49:14.909Z,16.60
2019-05-23T22:51:50.185Z,16.60
2019-05-23T22:54:26.329Z,16.70
2019-05-23T22:56:55.536Z,16.70
2019-05-23T22:59:25.760Z,16.70
2019-05-23T23:02:01.438Z,16.70
2019-05-23T23:04:30.580Z,16.60
2019-05-23T23:06:59.789Z,16.40
2019-05-23T23:09:35.066Z,16.30
2019-05-23T23:12:04.290Z,16.30
2019-05-23T23:14:42.590Z,16.20
2019-05-23T23:17:11.826Z,16.10
2019-05-23T23:19:41.250Z,16.10
2019-05-23T23:22:55.421Z,16.10
2019-05-23T23:25:24.674Z,16.10
2019-05-23T23:28:00.255Z,16.10
2019-05-23T23:30:32.521Z,16.10
2019-05-23T23:33:15.393Z,16.10
2019-05-23T23:35:50.857Z,16.00
2019-05-23T23:38:26.890Z,16.00
2019-05-23T23:40:56.118Z,16.00
2019-05-23T23:43:25.354Z,16.10
2019-05-23T23:46:18.607Z,16.10
2019-05-23T23:49:05.653Z,16.00
2019-05-23T23:51:58.733Z,16.00
2019-05-23T23:54:52.862Z,16.00
2019-05-23T23:57:47.162Z,16.00
